createdAt,value
2022-12-03T00:01:48.381Z,16.43
2022-12-03T00:04:15.264Z,25.40
2022-12-03T00:06:41.735Z,14.63
2022-12-03T00:09:09.008Z,15.70
2022-12-03T00:11:35.599Z,19.57
2022-12-03T00:14:02.057Z,16.13
2022-12-03T00:16:29.177Z,14.63
2022-12-03T00:18:56.023Z,15.83
2022-12-03T00:21:24.580Z,16.50
2022-12-03T00:23:51.701Z,18.03
2022-12-03T00:26:18.151Z,17.47
2022-12-03T00:28:45.535Z,14.87
2022-12-03T00:31:12.072Z,14.80
2022-12-03T00:33:38.544Z,14.30
2022-12-03T00:36:05.411Z,16.20
2022-12-03T00:38:32.100Z,14.33
2022-12-03T00:41:01.860Z,15.83
2022-12-03T00:43:28.300Z,16.97
2022-12-03T00:45:54.802Z,17.67
2022-12-03T00:48:21.237Z,16.50
2022-12-03T00:50:47.689Z,16.50
2022-12-03T00:53:14.124Z,16.60
2022-12-03T00:55:40.563Z,17.03
2022-12-03T00:58:08.601Z,17.67
2022-12-03T01:00:36.044Z,18.97
2022-12-03T01:03:02.890Z,15.23
2022-12-03T01:05:29.385Z,16.47
2022-12-03T01:07:55.890Z,17.13
2022-12-03T01:10:22.393Z,16.90
2022-12-03T01:12:48.858Z,17.60
2022-12-03T01:15:15.286Z,17.47
2022-12-03T01:17:41.820Z,17.00
2022-12-03T01:20:09.592Z,15.57
2022-12-03T01:22:36.164Z,17.00
2022-12-03T01:25:02.687Z,17.80
2022-12-03T01:27:29.140Z,17.70
2022-12-03T01:29:55.575Z,15.67
2022-12-03T01:32:22.215Z,17.20
2022-12-03T01:34:49.731Z,16.33
2022-12-03T01:37:17.227Z,15.80
2022-12-03T01:39:43.751Z,17.50
2022-12-03T01:42:19.674Z,16.77
2022-12-03T01:44:46.621Z,14.90
2022-12-03T01:47:16.891Z,17.10
2022-12-03T01:49:47.213Z,16.03
2022-12-03T01:52:16.471Z,16.33
2022-12-03T01:54:47.123Z,15.93
2022-12-03T01:57:19.973Z,13.77
2022-12-03T01:59:46.715Z,14.90
2022-12-03T02:02:18.042Z,13.93
2022-12-03T02:04:44.607Z,14.20
2022-12-03T02:07:37.431Z,13.30
2022-12-03T02:10:05.054Z,12.97
2022-12-03T02:12:51.733Z,14.40
2022-12-03T02:15:18.252Z,14.03
2022-12-03T02:17:44.757Z,15.57
2022-12-03T02:20:12.906Z,13.30
2022-12-03T02:23:00.577Z,14.60
2022-12-03T02:25:32.870Z,14.50
2022-12-03T02:28:00.224Z,13.70
2022-12-03T02:30:28.134Z,13.47
2022-12-03T02:32:56.104Z,13.33
2022-12-03T02:35:25.599Z,13.00
2022-12-03T02:37:55.470Z,13.10
2022-12-03T02:40:25.063Z,12.97
2022-12-03T02:42:55.295Z,12.23
2022-12-03T02:45:24.831Z,15.63
2022-12-03T02:47:57.000Z,13.63
2022-12-03T02:50:28.068Z,13.33
2022-12-03T02:52:56.100Z,13.93
2022-12-03T02:55:22.951Z,14.23
2022-12-03T02:57:50.376Z,14.33
2022-12-03T03:00:18.248Z,14.40
2022-12-03T03:02:46.269Z,14.40
2022-12-03T03:05:13.295Z,13.97
2022-12-03T03:07:40.228Z,15.27
2022-12-03T03:10:07.812Z,16.50
2022-12-03T03:12:39.071Z,15.70
2022-12-03T03:15:07.270Z,15.63
2022-12-03T03:17:35.313Z,16.70
2022-12-03T03:20:02.863Z,19.03
2022-12-03T03:22:37.631Z,13.77
2022-12-03T03:25:05.148Z,16.93
2022-12-03T03:27:32.136Z,16.77
2022-12-03T03:29:59.165Z,18.07
2022-12-03T03:32:27.179Z,18.43
2022-12-03T03:34:54.145Z,15.87
2022-12-03T03:37:21.072Z,16.63
2022-12-03T03:39:47.848Z,15.53
2022-12-03T03:42:14.431Z,16.20
2022-12-03T03:44:40.983Z,17.37
2022-12-03T03:47:07.701Z,16.57
2022-12-03T03:49:34.235Z,15.77
2022-12-03T03:52:00.732Z,17.20
2022-12-03T03:54:27.286Z,18.63
2022-12-03T03:56:53.769Z,16.87
2022-12-03T03:59:20.183Z,17.73
2022-12-03T04:01:46.797Z,15.03
2022-12-03T04:04:19.979Z,16.37
2022-12-03T04:06:47.273Z,17.80
2022-12-03T04:09:13.835Z,18.20
2022-12-03T04:11:58.976Z,16.30
2022-12-03T04:14:25.415Z,16.47
2022-12-03T04:16:51.865Z,17.00
2022-12-03T04:19:18.454Z,16.87
2022-12-03T04:22:03.649Z,17.97
2022-12-03T04:24:45.150Z,17.00
2022-12-03T04:27:30.412Z,13.90
2022-12-03T04:29:56.870Z,15.73
2022-12-03T04:32:42.002Z,16.87
2022-12-03T04:35:28.125Z,15.47
2022-12-03T04:37:54.651Z,17.07
2022-12-03T04:40:39.709Z,15.23
2022-12-03T04:43:06.166Z,15.33
2022-12-03T04:45:32.677Z,16.80
2022-12-03T04:47:59.180Z,15.33
2022-12-03T04:50:25.616Z,15.57
2022-12-03T04:52:52.055Z,15.23
2022-12-03T04:55:18.510Z,16.67
2022-12-03T04:57:44.926Z,17.37
2022-12-03T05:00:12.066Z,16.03
2022-12-03T05:02:38.539Z,14.00
2022-12-03T05:05:05.388Z,15.40
2022-12-03T05:07:31.870Z,15.03
2022-12-03T05:09:58.361Z,14.37
2022-12-03T05:12:24.802Z,15.93
2022-12-03T05:14:51.552Z,15.67
2022-12-03T05:17:18.366Z,15.90
2022-12-03T05:20:03.514Z,16.37
2022-12-03T05:22:29.948Z,15.47
2022-12-03T05:24:56.762Z,15.73
2022-12-03T05:27:24.258Z,15.70
2022-12-03T05:29:51.365Z,15.07
2022-12-03T05:32:17.857Z,16.07
2022-12-03T05:34:44.320Z,17.03
2022-12-03T05:37:11.075Z,15.07
2022-12-03T05:39:37.731Z,20.87
2022-12-03T05:42:22.814Z,17.07
2022-12-03T05:44:49.320Z,30.07
2022-12-03T05:47:15.761Z,16.10
2022-12-03T05:49:42.316Z,16.43
2022-12-03T05:52:08.760Z,14.87
2022-12-03T05:54:35.234Z,15.97
2022-12-03T05:57:01.683Z,18.13
2022-12-03T05:59:28.121Z,15.40
2022-12-03T06:01:54.571Z,17.67
2022-12-03T06:04:21.040Z,17.30
2022-12-03T06:06:47.480Z,16.70
2022-12-03T06:09:13.940Z,14.47
2022-12-03T06:11:41.281Z,15.70
2022-12-03T06:14:07.979Z,16.07
2022-12-03T06:16:34.480Z,17.03
2022-12-03T06:19:01.048Z,17.90
2022-12-03T06:21:27.505Z,16.83
2022-12-03T06:23:53.944Z,17.20
2022-12-03T06:26:20.375Z,17.93
2022-12-03T06:28:49.105Z,17.63
2022-12-03T06:31:15.857Z,17.27
2022-12-03T06:33:42.455Z,16.27
2022-12-03T06:36:09.054Z,16.37
2022-12-03T06:38:35.504Z,16.53
2022-12-03T06:41:01.944Z,16.50
2022-12-03T06:43:28.376Z,17.77
2022-12-03T06:45:54.828Z,17.07
2022-12-03T06:48:21.279Z,16.57
2022-12-03T06:50:47.777Z,18.00
2022-12-03T06:53:14.201Z,16.53
2022-12-03T06:55:40.668Z,18.57
2022-12-03T06:58:07.147Z,15.83
2022-12-03T07:00:33.598Z,16.30
2022-12-03T07:03:00.107Z,20.97
2022-12-03T07:05:26.738Z,20.97
2022-12-03T07:07:55.328Z,19.00
2022-12-03T07:10:22.334Z,21.80
2022-12-03T07:12:48.758Z,21.80
2022-12-03T07:15:15.238Z,22.00
2022-12-03T07:17:41.684Z,22.43
2022-12-03T07:20:09.043Z,20.37
2022-12-03T07:22:35.485Z,21.27
2022-12-03T07:25:02.009Z,23.57
2022-12-03T07:27:28.430Z,21.90
2022-12-03T07:29:54.880Z,23.53
2022-12-03T07:32:21.326Z,24.07
2022-12-03T07:34:47.779Z,28.27
2022-12-03T07:37:17.507Z,24.40
2022-12-03T07:39:46.516Z,22.93
2022-12-03T07:42:13.010Z,25.63
2022-12-03T07:44:39.469Z,23.47
2022-12-03T07:47:06.050Z,21.57
2022-12-03T07:49:32.883Z,22.20
2022-12-03T07:51:59.326Z,23.30
2022-12-03T07:54:26.260Z,23.70
2022-12-03T07:56:57.955Z,25.67
2022-12-03T07:59:28.690Z,25.10
2022-12-03T08:01:55.183Z,24.57
2022-12-03T08:04:21.748Z,25.03
2022-12-03T08:06:48.870Z,25.50
2022-12-03T08:09:16.455Z,23.70
2022-12-03T08:11:45.492Z,23.10
2022-12-03T08:14:17.212Z,29.13
2022-12-03T08:16:45.262Z,30.00
2022-12-03T08:19:13.831Z,30.73
2022-12-03T08:21:40.771Z,23.00
2022-12-03T08:24:14.896Z,25.13
2022-12-03T08:26:44.045Z,28.27
2022-12-03T08:29:12.467Z,29.90
2022-12-03T08:31:39.756Z,45.17
2022-12-03T08:34:19.446Z,69.27
2022-12-03T08:36:47.216Z,43.43
2022-12-03T08:39:33.851Z,61.60
2022-12-03T08:42:32.143Z,37.37
2022-12-03T08:45:29.712Z,32.23
2022-12-03T08:48:00.698Z,26.13
2022-12-03T08:50:28.252Z,32.77
2022-12-03T08:52:58.326Z,29.67
2022-12-03T08:55:38.616Z,25.50
2022-12-03T08:58:28.116Z,29.07
2022-12-03T09:01:11.259Z,32.27
2022-12-03T09:03:48.376Z,29.70
2022-12-03T09:06:14.872Z,32.07
2022-12-03T09:08:41.326Z,28.97
2022-12-03T09:11:07.818Z,31.47
2022-12-03T09:13:34.342Z,29.87
2022-12-03T09:16:00.813Z,34.50
2022-12-03T09:18:27.255Z,33.60
2022-12-03T09:20:53.698Z,26.53
2022-12-03T09:23:20.132Z,33.53
2022-12-03T09:25:46.597Z,26.93
2022-12-03T09:28:13.075Z,29.50
2022-12-03T09:30:39.560Z,29.33
2022-12-03T09:33:06.013Z,32.23
2022-12-03T09:35:32.561Z,33.83
2022-12-03T09:37:59.041Z,32.67
2022-12-03T09:40:25.545Z,31.67
2022-12-03T09:42:52.094Z,33.93
2022-12-03T09:45:18.608Z,42.63
2022-12-03T09:47:47.256Z,35.90
2022-12-03T09:50:15.808Z,38.70
2022-12-03T09:52:42.484Z,38.33
2022-12-03T09:55:17.786Z,34.67
2022-12-03T09:57:44.443Z,31.03
2022-12-03T10:00:19.245Z,30.13
2022-12-03T10:02:46.867Z,29.83
2022-12-03T10:05:14.626Z,32.50
2022-12-03T10:07:42.041Z,30.47
2022-12-03T10:10:18.471Z,28.73
2022-12-03T10:12:45.214Z,29.67
2022-12-03T10:15:13.403Z,27.90
2022-12-03T10:17:39.929Z,29.00
2022-12-03T10:20:07.726Z,28.97
2022-12-03T10:22:37.327Z,26.53
2022-12-03T10:25:07.767Z,27.10
2022-12-03T10:27:34.300Z,27.13
2022-12-03T10:30:03.887Z,27.63
2022-12-03T10:32:45.555Z,32.33
2022-12-03T10:35:17.980Z,29.63
2022-12-03T10:38:05.263Z,28.10
2022-12-03T10:40:37.328Z,31.03
2022-12-03T10:43:23.646Z,31.67
2022-12-03T10:46:00.474Z,27.17
2022-12-03T10:48:30.126Z,29.27
2022-12-03T10:51:02.268Z,33.17
2022-12-03T10:53:34.017Z,27.63
2022-12-03T10:56:03.048Z,33.50
2022-12-03T10:58:31.466Z,29.10
2022-12-03T11:00:59.107Z,27.67
2022-12-03T11:03:27.914Z,25.53
2022-12-03T11:05:55.465Z,28.33
2022-12-03T11:08:24.548Z,26.00
2022-12-03T11:11:03.080Z,25.03
2022-12-03T11:13:32.742Z,25.97
2022-12-03T11:16:00.652Z,27.80
2022-12-03T11:18:36.325Z,27.67
2022-12-03T11:21:08.833Z,29.53
2022-12-03T11:23:44.402Z,28.37
2022-12-03T11:26:19.785Z,29.53
2022-12-03T11:28:46.507Z,26.90
2022-12-03T11:31:39.262Z,29.97
2022-12-03T11:34:18.019Z,28.60
2022-12-03T11:37:12.417Z,26.80
2022-12-03T11:39:45.215Z,29.40
2022-12-03T11:42:26.933Z,24.13
2022-12-03T11:45:02.591Z,23.53
2022-12-03T11:47:36.591Z,27.07
2022-12-03T11:50:17.763Z,27.10
2022-12-03T11:52:46.799Z,22.50
2022-12-03T11:55:17.992Z,23.33
2022-12-03T11:57:44.522Z,24.57
2022-12-03T12:00:21.460Z,23.53
2022-12-03T12:02:49.091Z,24.60
2022-12-03T12:05:20.898Z,24.43
2022-12-03T12:07:48.214Z,22.93
2022-12-03T12:10:44.891Z,23.77
2022-12-03T12:13:30.133Z,27.00
2022-12-03T12:15:57.784Z,31.87
2022-12-03T12:18:41.507Z,22.53
2022-12-03T12:21:43.119Z,22.50
2022-12-03T12:24:31.484Z,21.83
2022-12-03T12:27:00.526Z,21.77
2022-12-03T12:29:27.500Z,22.37
2022-12-03T12:32:06.117Z,23.53
2022-12-03T12:34:33.029Z,24.07
2022-12-03T12:37:00.331Z,21.67
2022-12-03T12:39:26.925Z,23.40
2022-12-03T12:41:54.461Z,20.80
2022-12-03T12:44:23.557Z,22.60
2022-12-03T12:46:52.618Z,22.63
2022-12-03T12:49:23.479Z,23.40
2022-12-03T12:51:50.622Z,25.33
2022-12-03T12:54:20.396Z,24.87
2022-12-03T12:56:49.943Z,20.00
2022-12-03T12:59:20.906Z,24.27
2022-12-03T13:01:49.228Z,22.70
2022-12-03T13:04:21.815Z,24.57
2022-12-03T13:06:50.478Z,21.30
2022-12-03T13:09:20.543Z,25.10
2022-12-03T13:12:00.222Z,25.13
2022-12-03T13:14:32.139Z,23.17
2022-12-03T13:17:01.325Z,25.17
2022-12-03T13:19:29.672Z,21.57
2022-12-03T13:21:57.672Z,22.87
2022-12-03T13:24:37.254Z,20.60
2022-12-03T13:27:23.067Z,22.80
2022-12-03T13:29:54.719Z,20.27
2022-12-03T13:32:32.404Z,21.00
2022-12-03T13:35:23.482Z,20.97
2022-12-03T13:37:50.060Z,21.03
2022-12-03T13:40:30.805Z,23.20
2022-12-03T13:42:58.428Z,23.40
2022-12-03T13:45:31.033Z,22.57
2022-12-03T13:48:01.906Z,23.10
2022-12-03T13:50:39.846Z,24.80
2022-12-03T13:53:31.833Z,24.73
2022-12-03T13:56:09.231Z,20.60
2022-12-03T13:58:35.662Z,22.27
2022-12-03T14:01:02.168Z,22.53
2022-12-03T14:03:28.620Z,21.90
2022-12-03T14:05:55.064Z,24.13
2022-12-03T14:08:21.571Z,28.37
2022-12-03T14:10:48.046Z,27.33
2022-12-03T14:13:14.454Z,25.50
2022-12-03T14:15:40.907Z,27.50
2022-12-03T14:18:07.334Z,24.03
2022-12-03T14:20:34.994Z,24.00
2022-12-03T14:23:01.426Z,23.33
2022-12-03T14:25:27.923Z,24.47
2022-12-03T14:27:54.424Z,24.33
2022-12-03T14:30:21.226Z,22.90
2022-12-03T14:32:47.687Z,23.97
2022-12-03T14:35:14.225Z,23.57
2022-12-03T14:37:40.640Z,23.50
2022-12-03T14:40:09.074Z,23.77
2022-12-03T14:42:36.496Z,26.60
2022-12-03T14:45:03.692Z,24.57
2022-12-03T14:47:33.418Z,23.97
2022-12-03T14:50:00.594Z,24.23
2022-12-03T14:52:27.223Z,22.37
2022-12-03T14:54:53.724Z,19.43
2022-12-03T14:57:20.241Z,24.27
2022-12-03T14:59:47.284Z,26.20
2022-12-03T15:02:14.118Z,23.20
2022-12-03T15:04:41.218Z,23.90
2022-12-03T15:07:08.017Z,22.80
2022-12-03T15:09:34.651Z,20.80
2022-12-03T15:12:01.404Z,40.73
2022-12-03T15:14:28.001Z,25.03
2022-12-03T15:16:54.663Z,24.97
2022-12-03T15:19:21.355Z,26.17
2022-12-03T15:21:47.832Z,22.83
2022-12-03T15:24:14.333Z,24.00
2022-12-03T15:26:40.770Z,26.13
2022-12-03T15:29:07.254Z,26.60
2022-12-03T15:31:33.890Z,26.43
2022-12-03T15:34:00.375Z,25.83
2022-12-03T15:36:26.851Z,25.03
2022-12-03T15:38:53.354Z,27.30
2022-12-03T15:41:29.022Z,25.30
2022-12-03T15:43:57.565Z,23.90
2022-12-03T15:46:24.317Z,24.10
2022-12-03T15:48:50.824Z,23.63
2022-12-03T15:51:17.532Z,32.47
2022-12-03T15:53:43.963Z,25.47
2022-12-03T15:56:12.084Z,39.57
2022-12-03T15:58:39.668Z,39.00
2022-12-03T16:01:06.598Z,28.57
2022-12-03T16:03:33.163Z,24.87
2022-12-03T16:05:59.711Z,24.53
2022-12-03T16:08:26.939Z,25.23
2022-12-03T16:10:53.441Z,24.07
2022-12-03T16:13:19.907Z,26.97
2022-12-03T16:15:46.380Z,23.53
2022-12-03T16:18:12.843Z,29.53
2022-12-03T16:20:39.340Z,30.43
2022-12-03T16:23:05.819Z,32.70
2022-12-03T16:25:32.308Z,30.80
2022-12-03T16:27:58.801Z,27.57
2022-12-03T16:30:25.300Z,27.80
2022-12-03T16:32:51.846Z,27.47
2022-12-03T16:35:18.442Z,28.70
2022-12-03T16:37:44.923Z,27.13
2022-12-03T16:40:12.143Z,28.47
2022-12-03T16:42:38.670Z,30.87
2022-12-03T16:45:08.422Z,32.13
2022-12-03T16:47:35.989Z,29.90
2022-12-03T16:50:03.811Z,32.27
2022-12-03T16:52:30.292Z,34.30
2022-12-03T16:54:56.727Z,31.33
2022-12-03T16:57:23.190Z,35.10
2022-12-03T16:59:49.618Z,32.23
2022-12-03T17:02:16.243Z,35.40
2022-12-03T17:04:42.710Z,35.37
2022-12-03T17:07:09.176Z,32.00
2022-12-03T17:09:35.591Z,27.83
2022-12-03T17:12:02.044Z,28.17
2022-12-03T17:14:33.032Z,31.70
2022-12-03T17:16:59.844Z,27.07
2022-12-03T17:19:26.288Z,28.67
2022-12-03T17:21:54.093Z,29.03
2022-12-03T17:24:21.442Z,34.47
2022-12-03T17:26:48.051Z,35.53
2022-12-03T17:29:14.542Z,29.83
2022-12-03T17:31:42.493Z,34.17
2022-12-03T17:34:09.587Z,32.70
2022-12-03T17:36:36.077Z,37.40
2022-12-03T17:39:02.583Z,34.27
2022-12-03T17:41:29.043Z,33.40
2022-12-03T17:43:55.485Z,30.50
2022-12-03T17:46:22.048Z,28.03
2022-12-03T17:48:48.500Z,34.13
2022-12-03T17:51:15.034Z,30.73
2022-12-03T17:53:41.471Z,33.63
2022-12-03T17:56:08.007Z,30.20
2022-12-03T17:58:34.762Z,35.60
2022-12-03T18:01:03.114Z,31.00
2022-12-03T18:03:30.156Z,28.97
2022-12-03T18:05:56.754Z,30.20
2022-12-03T18:08:23.396Z,33.13
2022-12-03T18:10:50.241Z,35.17
2022-12-03T18:13:16.779Z,27.57
2022-12-03T18:15:43.345Z,26.40
2022-12-03T18:18:09.910Z,30.27
2022-12-03T18:20:36.515Z,25.13
2022-12-03T18:23:03.152Z,25.17
2022-12-03T18:25:29.762Z,25.90
2022-12-03T18:27:56.925Z,26.07
2022-12-03T18:30:23.492Z,27.00
2022-12-03T18:32:50.700Z,25.53
2022-12-03T18:35:18.036Z,26.20
2022-12-03T18:37:44.683Z,25.97
2022-12-03T18:40:20.113Z,24.27
2022-12-03T18:42:47.047Z,25.03
2022-12-03T18:45:15.210Z,24.47
2022-12-03T18:47:42.243Z,26.73
2022-12-03T18:50:09.583Z,23.87
2022-12-03T18:52:36.299Z,23.73
2022-12-03T18:55:03.520Z,24.43
2022-12-03T18:57:29.972Z,21.27
2022-12-03T18:59:56.556Z,23.70
2022-12-03T19:05:10.028Z,24.13
2022-12-03T19:07:36.963Z,24.20
2022-12-03T19:10:04.568Z,23.63
2022-12-03T19:12:31.246Z,22.63
2022-12-03T19:14:58.773Z,22.47
2022-12-03T19:17:27.109Z,21.50
2022-12-03T19:19:54.278Z,22.90
2022-12-03T19:22:21.313Z,23.17
2022-12-03T19:24:47.767Z,18.80
2022-12-03T19:27:14.330Z,21.07
2022-12-03T19:29:40.832Z,20.00
2022-12-03T19:32:07.544Z,19.27
2022-12-03T19:34:37.072Z,19.10
2022-12-03T19:37:03.590Z,19.90
2022-12-03T19:39:30.052Z,17.87
2022-12-03T19:41:56.553Z,20.27
2022-12-03T19:44:23.105Z,17.13
2022-12-03T19:46:50.124Z,19.43
2022-12-03T19:49:18.613Z,18.87
2022-12-03T19:51:45.143Z,20.67
2022-12-03T19:54:11.660Z,19.40
2022-12-03T19:56:38.659Z,21.27
2022-12-03T19:59:05.479Z,19.47
2022-12-03T20:01:33.585Z,18.97
2022-12-03T20:04:01.944Z,20.13
2022-12-03T20:06:31.403Z,18.00
2022-12-03T20:09:03.974Z,19.57
2022-12-03T20:11:32.178Z,19.20
2022-12-03T20:14:10.513Z,21.90
2022-12-03T20:16:37.367Z,19.60
2022-12-03T20:19:06.731Z,18.13
2022-12-03T20:21:35.513Z,21.57
2022-12-03T20:24:02.718Z,17.30
2022-12-03T20:26:29.208Z,18.20
2022-12-03T20:28:56.877Z,21.00
2022-12-03T20:31:25.875Z,22.30
2022-12-03T20:33:54.982Z,23.43
2022-12-03T20:36:22.786Z,25.03
2022-12-03T20:38:53.771Z,26.30
2022-12-03T20:41:20.795Z,26.20
2022-12-03T20:43:47.916Z,26.83
2022-12-03T20:46:20.301Z,25.10
2022-12-03T20:48:47.292Z,25.20
2022-12-03T20:51:19.097Z,27.70
2022-12-03T20:53:46.061Z,22.63
2022-12-03T20:56:22.181Z,24.57
2022-12-03T20:58:49.728Z,23.60
2022-12-03T21:01:19.336Z,23.20
2022-12-03T21:03:46.570Z,23.93
2022-12-03T21:06:14.118Z,25.20
2022-12-03T21:08:42.472Z,24.13
2022-12-03T21:11:14.905Z,24.40
2022-12-03T21:13:43.511Z,24.70
2022-12-03T21:16:12.762Z,23.90
2022-12-03T21:18:39.531Z,27.40
2022-12-03T21:21:06.137Z,32.97
2022-12-03T21:23:33.733Z,30.97
2022-12-03T21:26:12.321Z,30.77
2022-12-03T21:28:40.849Z,27.43
2022-12-03T21:31:10.072Z,32.07
2022-12-03T21:33:37.316Z,27.80
2022-12-03T21:36:06.618Z,30.50
2022-12-03T21:38:33.944Z,32.63
2022-12-03T21:41:01.348Z,31.17
2022-12-03T21:43:28.211Z,34.00
2022-12-03T21:45:54.763Z,34.50
2022-12-03T21:48:21.845Z,37.83
2022-12-03T21:51:03.608Z,38.73
2022-12-03T21:53:32.132Z,39.23
2022-12-03T21:55:59.035Z,35.63
2022-12-03T21:58:25.619Z,41.70
2022-12-03T22:00:52.170Z,38.63
2022-12-03T22:03:18.616Z,38.60
2022-12-03T22:05:45.118Z,40.93
2022-12-03T22:08:13.735Z,35.77
2022-12-03T22:10:40.433Z,34.43
2022-12-03T22:13:06.900Z,32.37
2022-12-03T22:15:33.535Z,39.17
2022-12-03T22:18:00.073Z,38.13
2022-12-03T22:20:26.875Z,37.97
2022-12-03T22:22:53.366Z,67.77
2022-12-03T22:25:19.823Z,49.40
2022-12-03T22:27:46.259Z,39.33
2022-12-03T22:30:12.828Z,37.97
2022-12-03T22:32:39.319Z,37.20
2022-12-03T22:35:06.219Z,34.70
2022-12-03T22:37:32.889Z,35.67
2022-12-03T22:39:59.446Z,32.77
2022-12-03T22:42:25.904Z,35.10
2022-12-03T22:44:52.351Z,36.67
2022-12-03T22:47:18.809Z,35.93
2022-12-03T22:49:45.257Z,36.57
2022-12-03T22:52:11.722Z,33.93
2022-12-03T22:54:38.156Z,33.67
2022-12-03T22:57:04.656Z,32.70
2022-12-03T22:59:31.144Z,36.00
2022-12-03T23:01:58.131Z,33.60
2022-12-03T23:04:25.128Z,35.07
2022-12-03T23:06:51.607Z,35.10
2022-12-03T23:09:18.311Z,34.47
2022-12-03T23:11:45.460Z,34.50
2022-12-03T23:14:12.888Z,32.60
2022-12-03T23:16:39.592Z,34.43
2022-12-03T23:19:06.427Z,33.10
2022-12-03T23:21:34.903Z,38.13
2022-12-03T23:24:03.696Z,35.33
2022-12-03T23:26:30.516Z,34.33
2022-12-03T23:28:57.074Z,31.00
2022-12-03T23:31:26.567Z,33.13
2022-12-03T23:33:53.620Z,32.97
2022-12-03T23:36:21.256Z,37.10
2022-12-03T23:38:47.833Z,35.13
2022-12-03T23:41:16.327Z,35.43
2022-12-03T23:43:43.160Z,36.53
2022-12-03T23:46:17.913Z,34.80
2022-12-03T23:48:45.576Z,33.97
2022-12-03T23:51:20.797Z,35.37
2022-12-03T23:53:47.672Z,32.63
2022-12-03T23:56:16.971Z,34.17
2022-12-03T23:58:44.334Z,32.97
